Time;durP1;ratioP1;P1;durP2;ratioP2;P2;SDS_P1;SDS_P2;PMS_P1;PMS_P2;Temp;Humidity;BMP_temperature;BMP_pressure;BME280_temperature;BME280_humidity;BME280_pressure;Samples;Min_cycle;Max_cycle;Signal;HPM_P1;HPM_P2
2022/10/26 00:00:23;;;;;;;14.68;1.60;;;26.70;24.90;;;;;;5068946;28;20556;-68
2022/10/26 00:02:50;;;;;;;9.93;1.05;;;26.80;24.30;;;;;;5071153;28;20115;-68
2022/10/26 00:05:16;;;;;;;7.78;1.13;;;26.70;24.50;;;;;;5068228;28;20092;-67
2022/10/26 00:07:43;;;;;;;12.93;1.60;;;26.60;24.80;;;;;;5068086;28;20564;-65
2022/10/26 00:10:09;;;;;;;13.88;1.55;;;26.60;25.30;;;;;;5069039;28;20142;-67
2022/10/26 00:12:36;;;;;;;14.15;1.50;;;26.50;25.50;;;;;;5068461;28;20613;-65
2022/10/26 00:15:02;;;;;;;17.20;2.03;;;26.50;25.50;;;;;;5068117;28;20104;-65
2022/10/26 00:17:28;;;;;;;17.30;1.98;;;26.50;25.80;;;;;;5068163;28;20516;-69
2022/10/26 00:19:56;;;;;;;5.82;1.50;;;26.50;24.90;;;;;;5076841;28;20083;-65
2022/10/26 00:22:23;;;;;;;8.63;1.40;;;26.30;25.10;;;;;;5071770;28;20067;-66
2022/10/26 00:24:49;;;;;;;12.00;1.50;;;26.10;24.90;;;;;;5068548;28;20549;-66
2022/10/26 00:27:15;;;;;;;15.30;1.88;;;26.00;24.60;;;;;;5070078;28;20415;-67
2022/10/26 00:29:42;;;;;;;18.65;2.15;;;25.90;25.10;;;;;;5069214;28;20422;-65
2022/10/26 00:32:08;;;;;;;10.90;2.10;;;25.80;25.90;;;;;;5066553;28;20138;-66
2022/10/26 00:34:35;;;;;;;15.75;1.80;;;25.60;25.50;;;;;;5069268;28;20072;-64
2022/10/26 00:37:01;;;;;;;12.40;2.13;;;25.40;25.10;;;;;;5068203;28;20589;-66
2022/10/26 00:39:27;;;;;;;9.38;2.00;;;25.30;25.10;;;;;;5069251;28;20185;-66
2022/10/26 00:41:54;;;;;;;9.07;1.77;;;25.10;25.70;;;;;;5068169;28;20092;-66
2022/10/26 00:44:48;;;;;;;11.75;2.00;;;25.00;25.60;;;;;;5069672;28;20069;-67
2022/10/26 00:47:28;;;;;;;16.02;2.15;;;24.80;25.90;;;;;;5068508;28;20097;-66
2022/10/26 00:49:59;;;;;;;10.35;2.00;;;24.60;26.30;;;;;;5068245;28;20081;-66
2022/10/26 00:52:27;;;;;;;18.08;2.83;;;24.40;26.70;;;;;;5068979;28;20069;-64
2022/10/26 00:54:53;;;;;;;22.38;3.78;;;24.40;26.10;;;;;;5069496;28;20425;-66
2022/10/26 00:57:20;;;;;;;26.10;3.75;;;24.30;26.00;;;;;;5067873;28;20069;-65
2022/10/26 00:59:48;;;;;;;27.67;2.97;;;24.20;26.60;;;;;;5068407;28;20138;-66
2022/10/26 01:02:14;;;;;;;15.38;2.70;;;24.10;27.00;;;;;;5072201;28;20076;-66
2022/10/26 01:04:41;;;;;;;15.75;2.70;;;23.90;26.50;;;;;;5074693;28;20179;-67
2022/10/26 01:07:08;;;;;;;23.23;3.22;;;23.80;26.90;;;;;;5068506;28;20085;-65
2022/10/26 01:09:35;;;;;;;17.67;3.00;;;23.60;27.20;;;;;;5067699;28;20069;-66
2022/10/26 01:12:02;;;;;;;19.05;3.75;;;23.50;27.50;;;;;;5069323;28;20080;-66
2022/10/26 01:14:28;;;;;;;26.48;3.88;;;23.40;27.80;;;;;;5069311;28;20096;-66
2022/10/26 01:17:10;;;;;;;22.20;4.18;;;23.30;28.10;;;;;;5068764;28;20073;-67
2022/10/26 01:19:58;;;;;;;15.07;4.60;;;23.30;28.10;;;;;;5070007;28;20097;-65
2022/10/26 01:22:52;;;;;;;24.35;4.10;;;23.20;28.00;;;;;;5069147;28;20497;-66
2022/10/26 01:25:46;;;;;;;28.55;4.47;;;23.10;29.10;;;;;;5069594;28;20514;-68
2022/10/26 01:28:39;;;;;;;33.35;4.70;;;23.00;28.40;;;;;;5066551;28;20096;-67
2022/10/26 01:31:09;;;;;;;39.30;5.28;;;22.80;28.70;;;;;;5068995;28;20077;-66
2022/10/26 01:33:50;;;;;;;27.90;5.18;;;22.70;29.40;;;;;;5066875;28;20081;-65
2022/10/26 01:36:29;;;;;;;29.92;5.22;;;22.60;30.90;;;;;;5070213;28;20100;-67
2022/10/26 01:39:05;;;;;;;45.40;5.93;;;22.50;30.50;;;;;;5070632;28;20069;-66
2022/10/26 01:41:55;;;;;;;30.48;6.85;;;22.50;30.50;;;;;;5072393;28;20083;-67
2022/10/26 01:44:41;;;;;;;33.65;5.75;;;22.30;30.70;;;;;;5072918;28;20073;-65
2022/10/26 01:47:14;;;;;;;34.97;5.07;;;22.30;31.60;;;;;;5068221;28;20097;-65
2022/10/26 01:49:51;;;;;;;27.63;5.20;;;22.20;31.50;;;;;;5073109;28;20119;-69
2022/10/26 01:52:19;;;;;;;32.75;5.30;;;22.20;31.50;;;;;;5071916;28;20071;-66
2022/10/26 01:54:45;;;;;;;33.33;5.57;;;22.10;31.40;;;;;;5072301;28;20103;-66
2022/10/26 01:57:15;;;;;;;30.02;5.38;;;22.10;31.50;;;;;;5077378;28;20076;-67
2022/10/26 01:59:57;;;;;;;37.08;6.10;;;21.90;32.00;;;;;;5071002;28;20096;-66
2022/10/26 02:02:29;;;;;;;52.78;5.55;;;21.80;32.70;;;;;;5071155;28;20084;-66
2022/10/26 02:05:07;;;;;;;38.63;6.30;;;21.80;33.60;;;;;;5071221;28;20096;-67
2022/10/26 02:08:07;;;;;;;43.83;6.18;;;21.80;33.00;;;;;;5071429;28;20112;-68
2022/10/26 02:10:51;;;;;;;47.10;5.75;;;21.70;32.70;;;;;;5070534;28;20116;-66
2022/10/26 02:13:45;;;;;;;42.00;6.78;;;21.70;34.50;;;;;;5076325;28;20081;-67
2022/10/26 02:16:29;;;;;;;31.00;6.13;;;21.60;34.90;;;;;;5073068;28;20073;-67
2022/10/26 02:19:22;;;;;;;45.35;6.75;;;21.50;34.20;;;;;;5070870;28;20069;-67
2022/10/26 02:21:53;;;;;;;42.50;5.75;;;21.40;34.50;;;;;;5071460;28;20104;-65
2022/10/26 02:24:22;;;;;;;40.47;5.10;;;21.40;35.20;;;;;;5070901;28;20556;-66
2022/10/26 02:26:51;;;;;;;45.38;6.53;;;21.40;34.80;;;;;;5071725;28;20454;-67
2022/10/26 02:29:19;;;;;;;49.00;6.75;;;21.30;34.70;;;;;;5071424;28;20160;-67
2022/10/26 02:31:48;;;;;;;32.17;5.72;;;21.30;34.50;;;;;;5073506;28;20070;-65
2022/10/26 02:34:19;;;;;;;42.30;6.85;;;21.20;35.00;;;;;;5068922;28;20069;-69
2022/10/26 02:36:47;;;;;;;47.83;6.65;;;21.20;35.20;;;;;;5071371;28;20162;-66
2022/10/26 02:39:16;;;;;;;42.10;6.03;;;21.10;35.50;;;;;;5071240;28;20073;-67
2022/10/26 02:41:44;;;;;;;37.35;5.68;;;21.10;35.40;;;;;;5070516;28;20073;-66
2022/10/26 02:44:30;;;;;;;38.22;6.25;;;21.10;35.40;;;;;;5071087;28;20433;-67
2022/10/26 02:46:57;;;;;;;43.40;7.10;;;21.00;36.20;;;;;;5074572;28;20175;-68
2022/10/26 02:49:24;;;;;;;58.55;8.73;;;20.90;36.60;;;;;;5071379;28;20069;-67
2022/10/26 02:52:11;;;;;;;46.03;9.55;;;20.80;36.90;;;;;;5070929;28;20065;-67
2022/10/26 02:55:01;;;;;;;47.20;8.27;;;20.80;37.50;;;;;;5072697;28;20077;-66
2022/10/26 02:57:40;;;;;;;42.63;8.15;;;20.70;38.10;;;;;;5071789;28;20077;-66
2022/10/26 03:00:13;;;;;;;57.53;9.38;;;20.70;37.60;;;;;;5070907;28;20171;-67
2022/10/26 03:02:42;;;;;;;57.10;10.27;;;20.60;37.40;;;;;;5070015;28;20112;-67
2022/10/26 03:05:22;;;;;;;49.92;9.23;;;20.60;37.90;;;;;;5073255;28;20158;-67
2022/10/26 03:07:48;;;;;;;68.47;11.48;;;20.60;38.10;;;;;;5069545;28;20100;-68
2022/10/26 03:10:15;;;;;;;59.85;10.48;;;20.50;38.50;;;;;;5070858;28;20072;-67
2022/10/26 03:12:41;;;;;;;60.53;10.20;;;20.50;38.30;;;;;;5074328;28;20069;-65
2022/10/26 03:15:08;;;;;;;65.78;10.50;;;20.50;38.30;;;;;;5071651;28;20158;-65
2022/10/26 03:17:34;;;;;;;62.80;11.70;;;20.40;38.80;;;;;;5069961;28;20073;-66
2022/10/26 03:20:01;;;;;;;66.50;12.07;;;20.40;39.40;;;;;;5069332;28;20530;-67
2022/10/26 03:22:27;;;;;;;68.82;11.23;;;20.40;38.40;;;;;;5070369;28;20143;-66
2022/10/26 03:24:53;;;;;;;83.07;11.60;;;20.30;38.80;;;;;;5070352;28;20069;-67
2022/10/26 03:27:20;;;;;;;77.80;13.13;;;20.30;39.20;;;;;;5071641;28;20103;-66
2022/10/26 03:29:46;;;;;;;77.10;13.13;;;20.30;39.00;;;;;;5076486;28;20081;-67
2022/10/26 03:32:12;;;;;;;74.32;12.75;;;20.20;39.80;;;;;;5072401;28;20148;-67
2022/10/26 03:34:39;;;;;;;82.85;13.65;;;20.20;40.70;;;;;;5067978;28;20522;-66
2022/10/26 03:37:05;;;;;;;91.78;13.63;;;20.20;41.20;;;;;;5069952;28;20529;-67
2022/10/26 03:39:32;;;;;;;99.53;15.57;;;20.10;40.50;;;;;;5069890;28;20101;-66
2022/10/26 03:41:58;;;;;;;76.82;12.40;;;20.10;40.40;;;;;;5070969;28;20159;-67
2022/10/26 03:44:25;;;;;;;97.25;14.30;;;20.00;40.50;;;;;;5075432;28;20100;-68
2022/10/26 03:46:51;;;;;;;92.22;12.98;;;20.00;41.40;;;;;;5069085;28;20180;-67
2022/10/26 03:49:17;;;;;;;87.25;13.68;;;20.00;41.60;;;;;;5068922;28;20072;-66
2022/10/26 03:51:44;;;;;;;88.05;13.98;;;19.90;41.10;;;;;;5077679;28;20080;-66
2022/10/26 03:54:10;;;;;;;93.82;14.48;;;19.90;41.10;;;;;;5074113;28;20419;-66
2022/10/26 03:56:36;;;;;;;105.55;14.50;;;19.80;41.00;;;;;;5068996;28;20073;-65
2022/10/26 03:59:03;;;;;;;95.60;15.32;;;19.80;40.20;;;;;;5071553;28;20084;-66
2022/10/26 04:01:29;;;;;;;93.07;14.82;;;19.80;40.30;;;;;;5067722;28;20101;-66
2022/10/26 04:03:56;;;;;;;85.72;14.73;;;19.70;40.80;;;;;;5080514;28;20077;-64
2022/10/26 04:06:22;;;;;;;95.32;13.32;;;19.70;41.40;;;;;;5076231;28;20207;-63
2022/10/26 04:08:48;;;;;;;96.50;14.05;;;19.70;42.40;;;;;;5075638;28;20094;-65
2022/10/26 04:11:15;;;;;;;107.70;14.90;;;19.60;41.90;;;;;;5068025;28;20480;-63
2022/10/26 04:13:41;;;;;;;71.15;13.98;;;19.50;41.10;;;;;;5073251;28;20183;-64
2022/10/26 04:16:07;;;;;;;85.10;14.60;;;19.50;41.30;;;;;;5066789;28;20080;-63
2022/10/26 04:18:34;;;;;;;84.47;14.75;;;19.50;41.70;;;;;;5068198;28;20076;-63
2022/10/26 04:21:01;;;;;;;82.63;14.75;;;19.50;41.20;;;;;;5067998;28;20076;-65
2022/10/26 04:23:27;;;;;;;130.27;18.35;;;19.40;41.10;;;;;;5067638;28;20126;-65
2022/10/26 04:25:54;;;;;;;86.55;16.48;;;19.30;40.50;;;;;;5068651;28;21598;-66
2022/10/26 04:28:20;;;;;;;108.75;17.92;;;19.30;40.70;;;;;;5067497;28;20551;-66
2022/10/26 04:30:47;;;;;;;96.97;16.15;;;19.30;41.10;;;;;;5070460;28;20436;-66
2022/10/26 04:33:13;;;;;;;92.22;16.20;;;19.30;41.30;;;;;;5072602;28;20619;-65
2022/10/26 04:35:41;;;;;;;105.80;15.70;;;19.30;42.00;;;;;;5064487;28;20076;-64
2022/10/26 04:38:09;;;;;;;93.25;17.10;;;19.20;42.20;;;;;;5067487;28;20579;-64
2022/10/26 04:40:36;;;;;;;104.80;17.95;;;19.20;42.40;;;;;;5067299;28;20510;-65
2022/10/26 04:43:02;;;;;;;95.35;18.05;;;19.20;42.40;;;;;;5066901;28;20077;-65
2022/10/26 04:45:32;;;;;;;91.72;17.65;;;19.10;42.90;;;;;;5072680;28;20093;-65
2022/10/26 04:48:07;;;;;;;119.30;20.50;;;19.10;42.90;;;;;;5067017;28;20092;-65
2022/10/26 04:50:34;;;;;;;112.60;19.95;;;19.10;42.30;;;;;;5068209;28;20221;-65
2022/10/26 04:53:00;;;;;;;93.22;19.17;;;19.10;41.50;;;;;;5076596;28;20076;-68
2022/10/26 04:55:27;;;;;;;129.50;21.38;;;19.20;41.20;;;;;;5073760;28;20448;-67
2022/10/26 04:57:53;;;;;;;116.57;20.75;;;19.20;41.40;;;;;;5076451;28;20375;-66
2022/10/26 05:00:20;;;;;;;123.28;20.95;;;19.20;41.50;;;;;;5074733;28;20514;-66
2022/10/26 05:02:46;;;;;;;107.40;21.40;;;19.10;41.80;;;;;;5071844;28;20407;-67
2022/10/26 05:05:12;;;;;;;122.90;24.33;;;19.10;42.00;;;;;;5070652;28;20108;-66
2022/10/26 05:07:39;;;;;;;115.95;21.92;;;19.00;42.00;;;;;;5071912;28;20089;-68
2022/10/26 05:10:06;;;;;;;135.45;24.10;;;19.00;42.30;;;;;;5072963;28;20069;-67
2022/10/26 05:12:32;;;;;;;147.02;23.73;;;18.90;44.30;;;;;;5072581;28;20093;-66
2022/10/26 05:14:59;;;;;;;123.40;21.73;;;18.90;44.10;;;;;;5077742;28;20087;-66
2022/10/26 05:17:26;;;;;;;112.65;22.98;;;18.90;44.20;;;;;;5070989;28;20221;-66
2022/10/26 05:19:57;;;;;;;121.25;23.63;;;18.80;43.70;;;;;;5071909;28;20554;-68
2022/10/26 05:22:26;;;;;;;130.25;24.17;;;18.80;44.50;;;;;;5069261;28;20101;-67
2022/10/26 05:24:52;;;;;;;137.73;25.33;;;18.70;44.50;;;;;;5071369;28;20449;-67
2022/10/26 05:27:19;;;;;;;135.00;23.90;;;18.60;44.50;;;;;;5071709;28;20544;-69
2022/10/26 05:29:45;;;;;;;133.95;25.17;;;18.70;45.10;;;;;;5073204;28;20072;-67
2022/10/26 05:32:12;;;;;;;142.98;25.02;;;18.60;45.70;;;;;;5071344;28;20065;-66
2022/10/26 05:34:38;;;;;;;162.23;26.77;;;18.50;46.00;;;;;;5073285;28;20163;-60
2022/10/26 05:37:05;;;;;;;147.75;25.48;;;18.50;45.40;;;;;;5076214;28;20518;-63
2022/10/26 05:39:31;;;;;;;139.40;26.58;;;18.40;45.20;;;;;;5071870;28;20069;-67
2022/10/26 05:41:57;;;;;;;135.60;27.13;;;18.40;46.60;;;;;;5072217;28;20151;-62
2022/10/26 05:44:24;;;;;;;143.57;26.55;;;18.30;47.10;;;;;;5071361;28;20069;-67
2022/10/26 05:46:50;;;;;;;137.23;27.27;;;18.30;46.50;;;;;;5071200;28;20111;-65
2022/10/26 05:49:16;;;;;;;143.77;25.67;;;18.30;46.10;;;;;;5071755;28;20076;-65
2022/10/26 05:51:43;;;;;;;184.38;28.70;;;18.30;46.80;;;;;;5071350;28;20066;-64
2022/10/26 05:54:09;;;;;;;198.80;31.65;;;18.30;47.40;;;;;;5079160;28;20096;-63
2022/10/26 05:56:40;;;;;;;154.90;29.85;;;18.40;46.10;;;;;;5075005;28;20073;-67
2022/10/26 05:59:14;;;;;;;163.32;28.67;;;18.40;46.30;;;;;;5071416;28;20077;-66
2022/10/26 06:01:46;;;;;;;139.07;29.08;;;18.40;47.20;;;;;;5073590;28;20580;-65
2022/10/26 06:04:37;;;;;;;121.38;27.58;;;18.30;46.30;;;;;;5076973;28;20107;-67
2022/10/26 06:07:12;;;;;;;155.15;30.55;;;18.30;46.90;;;;;;5070825;28;20178;-65
2022/10/26 06:09:39;;;;;;;159.00;30.48;;;18.30;47.40;;;;;;5070332;28;20065;-66
2022/10/26 06:12:06;;;;;;;165.52;31.13;;;18.40;47.40;;;;;;5070891;28;20096;-65
2022/10/26 06:14:34;;;;;;;147.10;29.08;;;18.40;46.70;;;;;;5070709;28;20080;-66
2022/10/26 06:17:35;;;;;;;138.93;30.02;;;18.40;47.50;;;;;;5070994;28;20231;-67
2022/10/26 06:20:17;;;;;;;179.50;32.45;;;18.30;48.20;;;;;;5071695;28;20073;-67
2022/10/26 06:22:58;;;;;;;175.10;30.67;;;18.20;47.80;;;;;;5071514;28;20433;-65
2022/10/26 06:25:46;;;;;;;148.45;30.75;;;18.20;48.30;;;;;;5071530;28;20100;-65
2022/10/26 06:28:30;;;;;;;165.27;29.83;;;18.20;48.90;;;;;;5071620;28;20225;-66
2022/10/26 06:30:57;;;;;;;168.73;30.60;;;18.10;49.10;;;;;;5070063;28;20065;-67
2022/10/26 06:33:25;;;;;;;159.35;30.65;;;18.10;49.90;;;;;;5073099;28;20065;-64
2022/10/26 06:36:22;;;;;;;173.13;32.85;;;18.10;50.00;;;;;;5073173;28;20517;-64
2022/10/26 06:39:14;;;;;;;178.95;35.28;;;18.10;49.60;;;;;;5067655;28;20100;-67
2022/10/26 06:41:40;;;;;;;161.40;33.45;;;18.00;48.50;;;;;;5072446;28;20546;-67
2022/10/26 06:44:14;;;;;;;152.45;33.67;;;17.90;47.50;;;;;;5071000;28;20844;-65
2022/10/26 06:46:44;;;;;;;171.20;31.83;;;17.90;48.40;;;;;;5070979;28;20081;-67
2022/10/26 06:49:31;;;;;;;155.20;33.40;;;17.90;48.70;;;;;;5070157;28;20080;-68
2022/10/26 06:51:58;;;;;;;157.20;33.23;;;17.90;47.90;;;;;;5072992;28;20077;-68
2022/10/26 06:54:50;;;;;;;167.20;31.08;;;17.70;48.60;;;;;;5071663;28;20088;-67
2022/10/26 06:57:18;;;;;;;158.90;33.25;;;17.70;49.20;;;;;;5074376;28;20069;-67
2022/10/26 06:59:48;;;;;;;161.00;33.35;;;17.70;47.80;;;;;;5070665;28;20115;-68
2022/10/26 07:02:14;;;;;;;176.10;33.88;;;17.70;47.40;;;;;;5070630;28;20108;-68
2022/10/26 07:04:42;;;;;;;155.82;34.63;;;17.80;47.30;;;;;;5071228;28;20080;-66
2022/10/26 07:07:19;;;;;;;143.88;33.97;;;17.80;47.10;;;;;;5070395;28;20084;-65
2022/10/26 07:09:46;;;;;;;122.50;31.25;;;17.80;47.00;;;;;;5069884;28;20076;-66
2022/10/26 07:12:12;;;;;;;190.10;34.40;;;17.80;46.90;;;;;;5070494;28;20065;-72
2022/10/26 07:14:39;;;;;;;141.60;31.23;;;17.80;47.10;;;;;;5070187;28;20088;-67
2022/10/26 07:17:05;;;;;;;147.18;32.17;;;17.70;47.50;;;;;;5073423;28;20156;-66
2022/10/26 07:19:32;;;;;;;181.05;32.45;;;17.70;48.70;;;;;;5079009;28;20429;-65
2022/10/26 07:21:59;;;;;;;161.07;32.08;;;17.60;48.40;;;;;;5071009;28;20092;-67
2022/10/26 07:24:25;;;;;;;155.77;32.60;;;17.70;47.50;;;;;;5072736;28;20077;-66
2022/10/26 07:26:54;;;;;;;134.38;31.08;;;17.60;47.70;;;;;;5073747;28;20096;-66
2022/10/26 07:29:22;;;;;;;168.07;32.75;;;17.70;47.80;;;;;;5069613;28;20101;-65
2022/10/26 07:31:48;;;;;;;150.85;33.50;;;17.70;48.00;;;;;;5068994;28;20092;-65
2022/10/26 07:34:14;;;;;;;183.40;35.55;;;17.70;47.80;;;;;;5069208;28;20076;-66
2022/10/26 07:36:41;;;;;;;151.07;31.73;;;17.80;47.80;;;;;;5072371;28;20119;-63
2022/10/26 07:39:08;;;;;;;185.02;35.05;;;17.80;48.70;;;;;;5073198;28;20077;-65
2022/10/26 07:41:34;;;;;;;155.50;34.05;;;17.80;48.40;;;;;;5069289;28;20105;-65
2022/10/26 07:44:01;;;;;;;164.30;33.22;;;17.70;48.10;;;;;;5062724;28;20522;-64
2022/10/26 07:46:27;;;;;;;152.48;32.10;;;17.70;48.20;;;;;;5069730;28;20088;-65
2022/10/26 07:48:54;;;;;;;152.48;34.50;;;17.70;48.90;;;;;;5073096;28;20064;-67
2022/10/26 07:51:20;;;;;;;179.82;35.05;;;17.70;49.10;;;;;;5078853;28;20130;-65
2022/10/26 07:53:47;;;;;;;171.27;33.08;;;17.80;49.60;;;;;;5072264;28;20077;-63
2022/10/26 07:56:14;;;;;;;161.68;32.10;;;17.60;49.90;;;;;;5078582;28;20065;-63
2022/10/26 07:58:41;;;;;;;156.35;32.15;;;17.60;49.10;;;;;;5078123;28;20065;-65
2022/10/26 08:01:10;;;;;;;162.18;34.22;;;17.60;49.40;;;;;;5072259;28;20097;-63
2022/10/26 08:03:36;;;;;;;149.77;33.40;;;17.60;49.50;;;;;;5071331;28;20544;-64
2022/10/26 08:06:03;;;;;;;178.20;33.90;;;17.60;49.10;;;;;;5069198;28;20077;-65
2022/10/26 08:08:33;;;;;;;158.73;33.85;;;17.60;49.70;;;;;;5071323;28;20489;-65
2022/10/26 08:10:59;;;;;;;143.73;32.97;;;17.50;49.40;;;;;;5070386;28;20084;-65
2022/10/26 08:13:26;;;;;;;151.93;31.55;;;17.50;49.60;;;;;;5073184;28;20138;-64
2022/10/26 08:15:57;;;;;;;193.38;37.83;;;17.50;50.10;;;;;;5071598;28;20065;-65
2022/10/26 08:18:24;;;;;;;145.13;33.22;;;17.50;49.90;;;;;;5069040;28;20077;-65
2022/10/26 08:20:50;;;;;;;152.30;32.58;;;17.50;49.70;;;;;;5071390;28;20089;-64
2022/10/26 08:23:16;;;;;;;;;;;17.40;50.00;;;;;;5070187;28;20156;-64
2022/10/26 08:25:42;;;;;;;163.48;33.75;;;17.40;49.50;;;;;;5076438;28;20051;-65
2022/10/26 08:28:09;;;;;;;141.73;34.22;;;17.50;49.50;;;;;;5072715;28;20088;-66
2022/10/26 08:30:35;;;;;;;168.93;34.83;;;17.40;49.80;;;;;;5068887;28;20100;-66
2022/10/26 08:33:04;;;;;;;138.50;33.33;;;17.40;50.20;;;;;;5069255;28;20540;-63
2022/10/26 08:35:31;;;;;;;173.02;34.50;;;17.50;50.40;;;;;;5068872;28;20073;-63
2022/10/26 08:37:58;;;;;;;145.20;34.17;;;17.40;50.50;;;;;;5071966;28;20109;-64
2022/10/26 08:40:29;;;;;;;160.75;37.28;;;17.40;50.90;;;;;;5071317;28;20483;-64
2022/10/26 08:43:10;;;;;;;186.52;38.63;;;17.40;50.90;;;;;;5070106;28;20094;-64
2022/10/26 08:45:40;;;;;;;163.98;38.95;;;17.40;50.80;;;;;;5069214;28;20337;-65
2022/10/26 08:48:20;;;;;;;180.02;39.63;;;17.30;51.20;;;;;;5067648;28;20556;-63
2022/10/26 08:50:50;;;;;;;180.25;43.92;;;17.30;51.40;;;;;;5073422;28;20076;-64
2022/10/26 08:53:19;;;;;;;166.40;39.78;;;17.30;51.20;;;;;;5072949;28;20084;-66
2022/10/26 08:56:00;;;;;;;125.72;37.40;;;17.20;50.60;;;;;;5075518;28;20065;-63
2022/10/26 08:58:35;;;;;;;145.13;37.65;;;17.10;50.80;;;;;;5072553;28;20433;-65
2022/10/26 09:01:04;;;;;;;155.35;38.10;;;17.10;51.00;;;;;;5073249;28;20084;-64
2022/10/26 09:03:30;;;;;;;153.25;37.15;;;17.10;50.80;;;;;;5081505;28;20092;-63
2022/10/26 09:06:15;;;;;;;165.52;37.45;;;17.10;51.00;;;;;;5074828;28;20081;-65
2022/10/26 09:09:16;;;;;;;143.57;34.45;;;17.20;51.00;;;;;;5082429;28;20152;-65
2022/10/26 09:12:15;;;;;;;132.52;33.65;;;17.10;51.20;;;;;;5075320;28;20076;-66
2022/10/26 09:15:07;;;;;;;138.43;33.17;;;17.10;52.20;;;;;;5071090;28;20084;-63
2022/10/26 09:17:46;;;;;;;153.82;33.75;;;17.00;52.00;;;;;;5086465;28;20101;-64
2022/10/26 09:20:25;;;;;;;148.48;34.97;;;17.00;52.50;;;;;;5079500;28;20089;-66
2022/10/26 09:23:06;;;;;;;152.25;33.25;;;17.00;52.30;;;;;;5080446;28;20072;-64
2022/10/26 09:25:40;;;;;;;150.07;32.75;;;16.90;52.20;;;;;;5079667;28;20077;-64
2022/10/26 09:28:18;;;;;;;152.82;34.88;;;16.80;52.50;;;;;;5084929;28;20142;-65
2022/10/26 09:30:45;;;;;;;119.38;31.63;;;16.80;52.80;;;;;;5082381;28;20077;-64
2022/10/26 09:33:18;;;;;;;135.13;32.17;;;16.80;52.60;;;;;;5080679;28;20065;-63
2022/10/26 09:36:06;;;;;;;133.32;30.65;;;16.80;53.10;;;;;;5080033;28;20580;-64
2022/10/26 09:38:32;;;;;;;;;;;16.70;52.30;;;;;;5082405;28;20084;-65
2022/10/26 09:41:12;;;;;;;131.25;30.63;;;16.60;51.80;;;;;;5074815;28;20019;-63
2022/10/26 09:43:53;;;;;;;135.05;31.65;;;16.50;52.70;;;;;;5076747;28;20068;-66
2022/10/26 09:46:49;;;;;;;134.85;29.58;;;16.60;52.60;;;;;;5079940;28;20530;-66
2022/10/26 09:49:18;;;;;;;138.50;32.05;;;16.50;52.60;;;;;;5073130;28;20088;-65
2022/10/26 09:51:45;;;;;;;134.40;29.23;;;16.60;53.10;;;;;;5077929;28;20081;-66
2022/10/26 09:54:21;;;;;;;115.40;30.90;;;16.50;53.00;;;;;;5080964;28;20072;-64
2022/10/26 09:56:53;;;;;;;129.80;29.92;;;16.40;52.80;;;;;;5069727;28;20529;-61
2022/10/26 09:59:24;;;;;;;120.32;29.55;;;16.50;52.90;;;;;;5074588;28;20077;-66
2022/10/26 10:01:50;;;;;;;132.15;31.85;;;16.50;53.40;;;;;;5074904;28;20461;-64
2022/10/26 10:04:18;;;;;;;;;;;16.40;52.90;;;;;;5073850;28;20077;-64
2022/10/26 10:06:50;;;;;;;128.43;32.33;;;16.40;52.60;;;;;;5074995;28;20349;-63
2022/10/26 10:09:23;;;;;;;135.98;30.02;;;16.40;52.80;;;;;;5078686;28;20126;-64
2022/10/26 10:11:57;;;;;;;145.50;33.20;;;16.40;52.60;;;;;;5071244;28;20077;-64
2022/10/26 10:14:30;;;;;;;122.05;31.85;;;16.30;52.00;;;;;;5071300;28;20084;-64
2022/10/26 10:17:03;;;;;;;140.45;33.60;;;16.20;52.60;;;;;;5071605;28;20073;-66
2022/10/26 10:19:35;;;;;;;128.45;31.85;;;16.30;53.00;;;;;;5071053;28;20065;-65
2022/10/26 10:22:22;;;;;;;145.30;34.97;;;16.30;53.40;;;;;;5072018;28;20085;-64
2022/10/26 10:25:02;;;;;;;135.85;32.08;;;16.30;53.60;;;;;;5072096;28;20077;-63
2022/10/26 10:27:30;;;;;;;137.30;34.45;;;16.20;53.80;;;;;;5074564;28;20150;-64
2022/10/26 10:29:58;;;;;;;129.50;32.70;;;16.30;53.90;;;;;;5070052;28;20065;-63
2022/10/26 10:32:29;;;;;;;132.55;33.03;;;16.20;53.90;;;;;;5070833;28;20084;-65
2022/10/26 10:34:58;;;;;;;130.02;33.25;;;16.20;54.20;;;;;;5072225;28;20431;-63
2022/10/26 10:37:45;;;;;;;147.20;34.65;;;16.10;54.80;;;;;;5071770;28;20109;-65
2022/10/26 10:40:20;;;;;;;151.82;34.60;;;16.10;55.00;;;;;;5077685;28;20118;-64
2022/10/26 10:42:48;;;;;;;131.88;32.92;;;16.20;54.70;;;;;;5079150;28;20159;-66
2022/10/26 10:45:26;;;;;;;139.73;34.13;;;16.10;55.00;;;;;;5079749;28;20079;-63
2022/10/26 10:48:00;;;;;;;144.95;35.13;;;15.90;55.90;;;;;;5078634;28;20088;-64
2022/10/26 10:50:29;;;;;;;164.20;35.38;;;16.00;55.60;;;;;;5082756;28;20091;-62
2022/10/26 10:53:13;;;;;;;140.23;35.53;;;16.00;55.20;;;;;;5076722;28;20073;-63
2022/10/26 10:55:45;;;;;;;171.27;35.78;;;16.10;55.50;;;;;;5078423;28;20123;-65
2022/10/26 10:58:21;;;;;;;152.82;34.63;;;15.90;55.10;;;;;;5077821;28;20234;-63
2022/10/26 11:00:51;;;;;;;138.73;33.38;;;15.90;55.10;;;;;;5077601;28;20145;-63
2022/10/26 11:03:26;;;;;;;143.25;33.72;;;15.90;55.40;;;;;;5076346;28;20069;-63
2022/10/26 11:06:27;;;;;;;150.50;36.20;;;15.70;55.70;;;;;;5074336;28;20119;-65
2022/10/26 11:09:05;;;;;;;140.85;34.10;;;15.80;55.30;;;;;;5077477;28;20071;-65
2022/10/26 11:11:46;;;;;;;146.25;35.72;;;15.70;56.30;;;;;;5080155;28;20065;-64
2022/10/26 11:14:34;;;;;;;123.40;35.03;;;15.70;56.20;;;;;;5077736;28;20073;-63
2022/10/26 11:17:17;;;;;;;161.52;35.78;;;15.80;56.00;;;;;;5071011;28;20134;-64
2022/10/26 11:19:56;;;;;;;145.25;34.85;;;15.70;56.80;;;;;;5070464;28;20109;-64
2022/10/26 11:22:38;;;;;;;147.27;36.03;;;15.80;56.40;;;;;;5070559;28;20076;-63
2022/10/26 11:25:19;;;;;;;143.40;34.95;;;15.70;56.10;;;;;;5070054;28;20108;-64
2022/10/26 11:28:00;;;;;;;170.65;36.22;;;15.80;56.40;;;;;;5074028;28;20142;-65
2022/10/26 11:30:29;;;;;;;153.43;36.63;;;15.80;56.50;;;;;;5069523;28;20189;-64
2022/10/26 11:33:17;;;;;;;149.95;37.47;;;15.80;56.50;;;;;;5069734;28;20110;-63
2022/10/26 11:35:57;;;;;;;151.15;36.42;;;15.70;56.90;;;;;;5069816;28;20118;-64
2022/10/26 11:38:30;;;;;;;169.25;34.50;;;15.70;56.90;;;;;;5070037;28;20100;-63
2022/10/26 11:41:18;;;;;;;151.60;36.28;;;15.70;56.90;;;;;;5069649;28;20138;-65
2022/10/26 11:43:52;;;;;;;152.63;36.85;;;15.60;57.20;;;;;;5068898;28;20080;-63
2022/10/26 11:46:24;;;;;;;162.32;35.63;;;15.60;57.50;;;;;;5070388;28;20069;-63
2022/10/26 11:49:10;;;;;;;157.45;35.63;;;15.60;57.60;;;;;;5069845;28;20081;-63
2022/10/26 11:51:48;;;;;;;163.88;35.65;;;15.60;57.20;;;;;;5069362;28;20475;-64
2022/10/26 11:54:28;;;;;;;153.90;37.78;;;15.50;57.70;;;;;;5070010;28;20073;-66
2022/10/26 11:56:57;;;;;;;157.43;36.45;;;15.40;57.90;;;;;;5073591;28;20073;-64
2022/10/26 11:59:30;;;;;;;156.52;36.83;;;15.50;58.10;;;;;;5068116;28;20102;-63
2022/10/26 12:02:00;;;;;;;147.85;35.40;;;15.50;58.10;;;;;;5068168;28;20505;-63
2022/10/26 12:04:30;;;;;;;169.75;37.08;;;15.40;58.30;;;;;;5066709;28;20093;-64
2022/10/26 12:06:58;;;;;;;163.20;36.20;;;15.30;58.40;;;;;;5066886;28;20093;-64
2022/10/26 12:09:30;;;;;;;160.13;38.33;;;15.20;58.80;;;;;;5069610;28;20065;-64
2022/10/26 12:12:30;;;;;;;183.02;40.13;;;15.10;59.60;;;;;;5068315;28;20093;-67
2022/10/26 12:15:39;;;;;;;160.25;39.50;;;15.30;59.20;;;;;;5068772;28;20429;-64
2022/10/26 12:18:08;;;;;;;146.18;41.03;;;15.40;58.60;;;;;;5047135;28;20108;-64
2022/10/26 12:20:43;;;;;;;155.30;36.40;;;15.40;58.80;;;;;;5057208;28;20085;-66
2022/10/26 12:23:11;;;;;;;161.35;37.28;;;15.30;58.70;;;;;;5046168;28;20295;-64
2022/10/26 12:25:37;;;;;;;172.23;40.25;;;15.30;59.00;;;;;;5037700;28;20554;-64
2022/10/26 12:28:04;;;;;;;151.20;36.97;;;15.30;59.20;;;;;;5037290;28;20163;-66
2022/10/26 12:30:33;;;;;;;174.73;39.53;;;15.30;59.20;;;;;;5046204;28;21160;-65
2022/10/26 12:33:23;;;;;;;179.43;42.42;;;15.40;59.60;;;;;;5039274;28;20172;-63
2022/10/26 12:35:50;;;;;;;160.18;40.78;;;15.40;59.40;;;;;;5038694;28;20093;-64
2022/10/26 12:38:24;;;;;;;;;;;15.40;59.80;;;;;;5042824;28;20082;-64
2022/10/26 12:41:06;;;;;;;166.05;40.20;;;15.30;58.90;;;;;;5037433;28;20019;-64
2022/10/26 12:43:34;;;;;;;174.65;40.20;;;15.30;59.10;;;;;;5043133;28;20090;-65
2022/10/26 12:46:21;;;;;;;158.85;40.63;;;15.30;58.80;;;;;;5045687;28;20509;-65
2022/10/26 12:48:49;;;;;;;149.50;39.33;;;15.30;58.80;;;;;;5048425;28;20089;-65
2022/10/26 12:51:21;;;;;;;202.13;42.92;;;15.10;59.00;;;;;;5068739;28;20522;-64